Time;durP1;ratioP1;P1;durP2;ratioP2;P2;SDS_P1;SDS_P2;PMS_P1;PMS_P2;Temp;Humidity;BMP_temperature;BMP_pressure;BME280_temperature;BME280_humidity;BME280_pressure;Samples;Min_cycle;Max_cycle;Signal;HPM_P1;HPM_P2
2023/01/11 00:00:46;;;;;;;5.33;1.33;;;;;;;5.70;91.77;100976.06;5033229;28;20525;-71
2023/01/11 00:03:12;;;;;;;9.03;1.40;;;;;;;5.66;90.62;100970.38;5033793;28;20463;-71
2023/01/11 00:05:39;;;;;;;5.50;1.57;;;;;;;5.65;90.01;100957.22;5033758;28;20443;-71
2023/01/11 00:08:08;;;;;;;10.70;1.70;;;;;;;5.66;91.53;100959.63;5033454;28;20435;-71
2023/01/11 00:10:35;;;;;;;4.87;1.07;;;;;;;5.61;90.63;100953.41;5033343;28;20526;-72
2023/01/11 00:13:02;;;;;;;10.00;2.00;;;;;;;5.61;91.15;100948.84;5033148;28;21078;-71
2023/01/11 00:15:29;;;;;;;5.10;1.60;;;;;;;5.64;91.61;100947.53;5033578;28;20529;-71
2023/01/11 00:17:56;;;;;;;5.67;1.77;;;;;;;5.68;91.54;100951.31;5033655;28;20865;-71
2023/01/11 00:20:23;;;;;;;5.20;1.60;;;;;;;5.62;91.91;100946.97;5033217;28;21004;-71
2023/01/11 00:22:50;;;;;;;7.07;1.63;;;;;;;5.68;91.70;100935.19;5032213;28;20465;-70
2023/01/11 00:25:18;;;;;;;7.20;1.70;;;;;;;5.69;92.29;100934.94;5033425;28;20530;-70
2023/01/11 00:27:46;;;;;;;9.80;1.80;;;;;;;5.71;90.93;100931.97;5033509;28;20449;-71
2023/01/11 00:30:13;;;;;;;6.37;2.00;;;;;;;5.74;91.05;100923.41;5033325;28;20852;-71
2023/01/11 00:32:39;;;;;;;8.03;1.60;;;;;;;5.72;90.77;100912.13;5033291;28;20482;-71
2023/01/11 00:35:07;;;;;;;13.30;1.90;;;;;;;5.65;91.08;100915.03;5033066;28;20451;-70
2023/01/11 00:37:34;;;;;;;5.33;1.33;;;;;;;5.62;91.45;100918.22;5032933;28;20483;-72
2023/01/11 00:40:01;;;;;;;6.10;1.40;;;;;;;5.67;91.19;100917.47;5033228;28;20542;-70
2023/01/11 00:47:59;;;;;;;5.13;1.30;;;;;;;5.66;90.32;100908.56;5033082;28;20407;-71
2023/01/11 00:50:27;;;;;;;7.53;1.60;;;;;;;5.71;91.12;100899.72;5033156;28;20457;-71
2023/01/11 00:52:54;;;;;;;10.93;1.73;;;;;;;5.72;89.01;100902.16;5032802;28;21066;-71
2023/01/11 00:55:20;;;;;;;5.10;1.10;;;;;;;5.76;89.14;100895.22;5033147;28;20443;-71
2023/01/11 00:57:48;;;;;;;6.50;1.70;;;;;;;5.74;89.45;100900.03;5032917;28;20446;-71
2023/01/11 01:00:15;;;;;;;8.33;2.13;;;;;;;5.75;89.87;100882.81;5033124;28;20438;-70
2023/01/11 01:02:42;;;;;;;6.10;1.33;;;;;;;5.74;90.02;100881.22;5032578;28;20502;-70
2023/01/11 01:05:09;;;;;;;6.90;1.40;;;;;;;5.79;88.73;100883.91;5032812;28;20578;-70
2023/01/11 01:07:36;;;;;;;6.80;2.47;;;;;;;5.84;88.55;100875.06;5033096;28;20454;-70
2023/01/11 01:10:04;;;;;;;7.80;1.60;;;;;;;5.87;89.15;100879.13;5032980;28;20447;-70
2023/01/11 01:15:16;;;;;;;5.30;1.73;;;;;;;5.80;88.16;100885.56;5032760;28;20402;-70
2023/01/11 01:17:42;;;;;;;5.03;1.20;;;;;;;5.82;88.69;100885.28;5032894;28;20451;-70
2023/01/11 01:20:10;;;;;;;6.13;1.33;;;;;;;5.77;88.54;100883.38;5032621;28;20475;-70
2023/01/11 01:22:36;;;;;;;11.30;2.27;;;;;;;5.81;88.47;100881.00;5032692;28;20475;-70
2023/01/11 01:25:03;;;;;;;7.57;1.83;;;;;;;5.86;87.61;100872.13;5032565;28;20439;-72
2023/01/11 01:27:30;;;;;;;12.37;2.20;;;;;;;5.87;87.56;100869.19;5032673;28;20443;-70
2023/01/11 01:29:56;;;;;;;8.50;1.80;;;;;;;5.91;88.16;100869.47;5032690;28;20441;-68
2023/01/11 01:32:24;;;;;;;7.20;1.60;;;;;;;5.95;86.94;100870.59;5032811;28;20573;-72
2023/01/11 01:34:51;;;;;;;5.73;1.33;;;;;;;6.00;87.75;100871.41;5036284;28;20447;-72
2023/01/11 01:37:18;;;;;;;8.70;2.10;;;;;;;6.00;87.69;100875.97;5036493;28;20478;-70
2023/01/11 01:39:44;;;;;;;6.57;1.30;;;;;;;6.01;87.73;100869.53;5036301;28;20870;-70
2023/01/11 01:42:13;;;;;;;9.03;2.00;;;;;;;6.00;88.81;100865.22;5035949;28;20467;-70
2023/01/11 01:44:58;;;;;;;10.33;1.17;;;;;;;5.98;87.88;100857.44;5036125;28;20431;-71
2023/01/11 01:47:34;;;;;;;5.37;1.70;;;;;;;5.95;88.16;100849.88;5036312;28;20470;-70
2023/01/11 01:50:04;;;;;;;9.87;1.33;;;;;;;5.89;87.25;100850.09;5035948;28;20423;-71
2023/01/11 01:52:34;;;;;;;4.77;1.40;;;;;;;5.88;88.77;100840.41;5036348;28;20565;-70
2023/01/11 01:55:06;;;;;;;6.07;1.73;;;;;;;5.92;87.48;100841.53;5036069;28;20439;-71
2023/01/11 01:57:37;;;;;;;7.80;1.40;;;;;;;5.97;88.08;100836.16;5035933;28;20428;-70
2023/01/11 02:00:08;;;;;;;8.47;1.60;;;;;;;5.98;88.04;100837.81;5035792;28;20523;-70
2023/01/11 02:02:37;;;;;;;13.20;1.17;;;;;;;5.90;88.58;100835.59;5035492;28;21070;-71
2023/01/11 02:05:06;;;;;;;5.77;1.43;;;;;;;5.92;88.27;100820.03;5035914;28;20451;-70
2023/01/11 02:07:35;;;;;;;8.93;1.67;;;;;;;5.94;87.58;100821.41;5035965;28;20465;-70
2023/01/11 02:10:04;;;;;;;5.03;1.37;;;;;;;5.99;86.96;100820.59;5035603;28;20450;-71
2023/01/11 02:12:35;;;;;;;4.27;1.07;;;;;;;6.05;87.19;100819.53;5035794;28;20467;-71
2023/01/11 02:15:03;;;;;;;5.60;1.50;;;;;;;6.07;85.84;100812.81;5035491;28;20923;-69
2023/01/11 02:17:30;;;;;;;6.13;1.17;;;;;;;6.10;86.26;100813.34;5035690;28;20539;-71
2023/01/11 02:20:08;;;;;;;5.33;1.23;;;;;;;6.09;85.57;100795.63;5035688;28;20459;-71
2023/01/11 02:23:11;;;;;;;5.73;1.20;;;;;;;6.09;86.24;100791.03;5035577;28;20455;-71
2023/01/11 02:26:10;;;;;;;13.33;1.50;;;;;;;6.10;86.02;100773.81;5035680;28;20519;-71
2023/01/11 02:28:46;;;;;;;5.80;1.07;;;;;;;6.13;86.78;100778.69;5014781;28;20475;-71
2023/01/11 02:31:23;;;;;;;4.10;0.90;;;;;;;6.16;86.80;100775.47;5035605;28;20471;-72
2023/01/11 02:33:57;;;;;;;7.80;1.17;;;;;;;6.17;87.31;100760.94;5035437;28;20475;-71
2023/01/11 02:36:33;;;;;;;7.63;1.53;;;;;;;6.21;87.47;100759.34;5035641;28;20431;-71
2023/01/11 02:39:08;;;;;;;5.77;1.60;;;;;;;6.20;85.90;100748.84;5035166;28;20920;-71
2023/01/11 02:47:20;;;;;;;4.87;1.00;;;;;;;6.23;84.75;100769.81;5034755;28;20954;-70
2023/01/11 02:49:52;;;;;;;6.03;0.97;;;;;;;6.26;85.70;100758.53;5034752;28;20526;-71
2023/01/11 02:52:26;;;;;;;5.60;1.20;;;;;;;6.24;84.97;100756.13;5034812;28;20467;-72
2023/01/11 02:54:57;;;;;;;5.67;1.37;;;;;;;6.23;85.40;100749.09;5034816;28;20450;-70
2023/01/11 02:57:26;;;;;;;7.37;1.40;;;;;;;6.21;84.67;100742.38;5035049;28;20432;-70
2023/01/11 02:59:56;;;;;;;7.23;1.10;;;;;;;6.21;85.35;100737.81;5034603;28;20482;-70
2023/01/11 03:02:23;;;;;;;4.60;1.10;;;;;;;6.18;84.28;100738.34;5034721;28;20848;-70
2023/01/11 03:04:50;;;;;;;5.07;1.50;;;;;;;6.22;84.95;100736.72;5034839;28;20450;-70
2023/01/11 03:07:32;;;;;;;4.90;1.33;;;;;;;6.25;85.55;100738.09;5034828;28;20475;-69
2023/01/11 03:10:16;;;;;;;11.53;1.50;;;;;;;6.30;84.10;100722.75;5034401;28;20430;-70
2023/01/11 03:12:55;;;;;;;4.93;1.33;;;;;;;6.31;83.42;100723.56;5034574;28;20557;-70
2023/01/11 03:15:37;;;;;;;7.50;1.63;;;;;;;6.35;84.79;100724.63;5034688;28;20440;-69
2023/01/11 03:18:20;;;;;;;6.57;1.03;;;;;;;6.35;83.47;100719.25;5034277;28;20872;-71
2023/01/11 03:20:52;;;;;;;5.70;1.40;;;;;;;6.41;83.41;100711.97;5034379;28;20442;-69
2023/01/11 03:23:24;;;;;;;5.90;1.27;;;;;;;6.46;84.02;100709.28;5034537;28;20429;-69
2023/01/11 03:25:59;;;;;;;4.10;0.80;;;;;;;6.45;84.21;100707.69;5034383;28;20526;-70
2023/01/11 03:28:37;;;;;;;6.27;1.23;;;;;;;6.42;84.22;100702.81;5034368;28;20433;-70
2023/01/11 03:31:15;;;;;;;5.00;0.83;;;;;;;6.38;83.50;100697.22;5034198;28;20529;-69
2023/01/11 03:33:52;;;;;;;6.90;1.10;;;;;;;6.45;84.36;100702.28;5034018;28;20495;-70
2023/01/11 03:36:22;;;;;;;6.30;1.13;;;;;;;6.40;84.68;100697.72;5034222;28;20535;-70
2023/01/11 03:38:55;;;;;;;6.20;1.30;;;;;;;6.44;83.52;100700.69;5034095;28;20424;-71
2023/01/11 03:41:25;;;;;;;4.10;0.87;;;;;;;6.46;83.38;100693.97;5034196;28;20494;-70
2023/01/11 03:43:54;;;;;;;4.30;0.70;;;;;;;6.45;82.96;100696.91;5033831;28;20530;-70
2023/01/11 03:46:27;;;;;;;4.40;1.10;;;;;;;6.49;83.66;100692.59;5033975;28;20446;-70
2023/01/11 03:48:57;;;;;;;6.40;1.10;;;;;;;6.51;84.24;100691.28;5033732;28;20416;-70
2023/01/11 03:51:27;;;;;;;5.33;1.10;;;;;;;6.54;83.29;100692.59;5033937;28;20558;-70
2023/01/11 03:53:58;;;;;;;4.20;0.80;;;;;;;6.54;82.52;100684.53;5033591;28;20491;-70
2023/01/11 03:56:32;;;;;;;10.37;1.53;;;;;;;6.57;83.67;100682.09;5034221;28;20790;-70
2023/01/11 03:58:59;;;;;;;7.90;1.13;;;;;;;6.57;83.94;100679.41;5033388;28;20522;-67
2023/01/11 04:01:27;;;;;;;4.57;0.80;;;;;;;6.51;83.88;100682.41;5033281;28;20487;-67
2023/01/11 04:03:54;;;;;;;6.70;1.10;;;;;;;6.47;83.08;100674.06;5071012;22;20526;-68
2023/01/11 04:06:22;;;;;;;4.10;0.80;;;;;;;6.52;85.56;100674.03;5053185;28;20521;-67
2023/01/11 04:08:49;;;;;;;8.73;1.07;;;;;;;6.58;85.31;100669.44;5053200;28;20537;-67
2023/01/11 04:11:15;;;;;;;4.03;0.67;;;;;;;6.58;84.70;100670.25;5053140;28;20529;-69
2023/01/11 04:13:42;;;;;;;7.60;1.00;;;;;;;6.57;83.32;100667.84;5052370;28;20577;-69
2023/01/11 04:16:08;;;;;;;4.10;0.80;;;;;;;6.62;84.86;100665.13;5052984;28;20438;-69
2023/01/11 04:18:36;;;;;;;6.43;1.43;;;;;;;6.60;85.18;100656.53;5053323;28;20812;-69
2023/01/11 04:21:03;;;;;;;4.53;0.97;;;;;;;6.63;85.00;100652.47;5053300;28;20474;-68
2023/01/11 04:23:30;;;;;;;5.50;0.93;;;;;;;6.67;84.61;100650.88;5053199;28;20454;-68
2023/01/11 04:25:56;;;;;;;5.10;1.10;;;;;;;6.64;84.69;100646.84;5052862;28;21019;-68
2023/01/11 04:28:23;;;;;;;5.87;1.27;;;;;;;6.63;84.48;100639.84;5052893;28;20939;-68
2023/01/11 04:30:49;;;;;;;5.23;1.03;;;;;;;6.66;85.24;100643.88;5053165;28;20537;-70
2023/01/11 04:33:18;;;;;;;4.00;0.90;;;;;;;6.66;85.28;100633.91;5053004;28;20469;-69
2023/01/11 04:35:46;;;;;;;4.77;0.93;;;;;;;6.69;86.04;100638.75;5053212;28;20446;-70
2023/01/11 04:38:13;;;;;;;7.60;0.90;;;;;;;6.66;85.46;100636.59;5053094;28;20468;-70
2023/01/11 04:40:39;;;;;;;5.37;1.13;;;;;;;6.72;85.88;100638.19;5053167;28;20470;-71
2023/01/11 04:43:05;;;;;;;4.77;0.90;;;;;;;6.75;84.88;100634.97;5053033;28;20497;-69
2023/01/11 04:45:31;;;;;;;5.90;0.90;;;;;;;6.77;84.97;100626.59;5053071;28;20470;-69
2023/01/11 04:47:58;;;;;;;6.73;1.20;;;;;;;6.74;84.20;100630.66;5052700;28;20250;-69
2023/01/11 04:50:26;;;;;;;3.90;0.60;;;;;;;6.76;84.79;100628.50;5052890;28;21011;-70
2023/01/11 04:52:54;;;;;;;4.70;1.00;;;;;;;6.77;84.41;100616.66;5052635;28;20519;-70
2023/01/11 04:55:21;;;;;;;3.90;0.60;;;;;;;6.69;85.56;100619.91;5052886;28;20515;-69
2023/01/11 04:57:48;;;;;;;11.03;1.57;;;;;;;6.70;86.30;100621.53;5052649;28;21031;-70
2023/01/11 05:00:15;;;;;;;4.03;0.70;;;;;;;6.78;86.05;100620.97;5052956;28;20533;-68
2023/01/11 05:02:42;;;;;;;4.80;1.00;;;;;;;6.76;85.95;100612.34;5052620;28;20480;-69
2023/01/11 05:05:10;;;;;;;6.23;1.13;;;;;;;6.81;85.61;100619.59;5052872;28;20450;-69
2023/01/11 05:07:37;;;;;;;7.13;1.20;;;;;;;6.86;85.99;100618.75;5053482;28;20487;-69
2023/01/11 05:10:06;;;;;;;4.87;1.07;;;;;;;6.88;84.89;100624.69;5056863;28;20535;-69
2023/01/11 05:12:33;;;;;;;7.20;1.33;;;;;;;6.93;84.48;100611.22;5056733;28;20529;-69
2023/01/11 05:15:00;;;;;;;7.90;1.57;;;;;;;6.90;85.30;100603.66;5056822;28;20569;-67
2023/01/11 05:17:26;;;;;;;10.23;1.47;;;;;;;6.95;85.32;100596.41;5056545;28;20946;-69
2023/01/11 05:19:53;;;;;;;6.73;1.13;;;;;;;6.94;86.64;100594.75;5056656;28;20439;-69
2023/01/11 05:22:19;;;;;;;7.83;1.20;;;;;;;6.94;86.90;100589.38;5056185;28;20963;-68
2023/01/11 05:24:46;;;;;;;4.20;0.70;;;;;;;6.98;86.49;100590.44;5056285;28;20953;-69
2023/01/11 05:27:14;;;;;;;4.50;0.83;;;;;;;6.95;85.81;100590.19;5056229;28;20478;-68
2023/01/11 05:29:42;;;;;;;4.40;0.93;;;;;;;6.98;85.38;100586.94;5056423;28;20591;-68
2023/01/11 05:32:11;;;;;;;3.80;0.60;;;;;;;6.96;86.62;100581.84;5056406;28;20958;-69
2023/01/11 05:34:37;;;;;;;5.80;0.90;;;;;;;6.95;86.17;100574.84;5056273;28;20489;-69
2023/01/11 05:37:04;;;;;;;4.17;0.90;;;;;;;6.96;86.33;100578.34;5056337;28;20529;-68
2023/01/11 05:39:30;;;;;;;4.73;1.10;;;;;;;6.98;86.36;100570.78;5056252;28;20444;-69
2023/01/11 05:41:57;;;;;;;3.87;0.70;;;;;;;6.97;86.68;100567.28;5055943;28;20464;-68
2023/01/11 05:47:08;;;;;;;6.47;0.77;;;;;;;6.93;87.58;100570.81;5055555;28;20461;-69
2023/01/11 05:49:35;;;;;;;4.80;1.03;;;;;;;6.92;88.77;100577.28;5055510;28;20943;-69
2023/01/11 05:52:02;;;;;;;4.73;0.83;;;;;;;6.89;89.08;100567.06;5055666;28;20473;-68
2023/01/11 05:54:28;;;;;;;4.93;0.90;;;;;;;6.91;89.42;100567.63;5055536;28;20485;-69
2023/01/11 05:56:56;;;;;;;4.40;0.80;;;;;;;6.95;89.29;100565.94;5055735;28;20442;-69
2023/01/11 05:59:23;;;;;;;5.80;1.03;;;;;;;6.93;89.76;100557.34;5055842;28;20537;-69
2023/01/11 06:01:50;;;;;;;5.10;0.77;;;;;;;6.92;90.24;100558.44;5055863;28;20441;-68
2023/01/11 06:04:17;;;;;;;5.10;0.77;;;;;;;6.89;90.40;100562.47;5055452;28;20470;-68
2023/01/11 06:06:44;;;;;;;4.33;0.77;;;;;;;6.90;90.22;100553.31;5055715;28;20446;-69
2023/01/11 06:09:10;;;;;;;6.47;0.97;;;;;;;6.81;90.90;100545.00;5055717;28;20438;-70
2023/01/11 06:11:37;;;;;;;4.43;0.80;;;;;;;6.88;90.55;100538.53;5055639;28;20485;-69
2023/01/11 06:14:03;;;;;;;4.57;0.70;;;;;;;6.80;90.60;100535.34;5055200;28;20852;-68
2023/01/11 06:16:30;;;;;;;3.97;0.73;;;;;;;6.85;90.57;100534.50;5055591;28;20442;-69
2023/01/11 06:18:58;;;;;;;4.73;1.03;;;;;;;6.83;90.79;100532.09;5054773;28;20445;-69
2023/01/11 06:21:24;;;;;;;4.40;1.10;;;;;;;6.89;90.73;100524.00;5054781;28;20474;-67
2023/01/11 06:23:51;;;;;;;4.10;0.80;;;;;;;6.87;90.57;100528.88;5055396;28;20502;-69
2023/01/11 06:26:19;;;;;;;5.03;0.70;;;;;;;6.89;90.32;100518.59;5055481;28;20434;-69
2023/01/11 06:28:46;;;;;;;6.17;0.90;;;;;;;6.87;90.62;100513.50;5055413;28;20512;-69
2023/01/11 06:31:13;;;;;;;5.33;1.30;;;;;;;6.90;90.69;100517.50;5055556;28;20453;-70
2023/01/11 06:33:39;;;;;;;4.80;1.07;;;;;;;6.85;90.74;100522.94;5055138;28;20546;-67
2023/01/11 06:36:10;;;;;;;5.17;1.13;;;;;;;6.81;91.22;100518.09;5054905;28;20963;-69
2023/01/11 06:38:37;;;;;;;3.90;0.70;;;;;;;6.81;90.79;100528.06;5055245;28;20504;-67
2023/01/11 06:41:07;;;;;;;5.30;1.00;;;;;;;6.81;91.33;100525.38;5055077;28;20548;-67
2023/01/11 06:43:34;;;;;;;4.10;0.70;;;;;;;6.81;91.43;100522.69;5054739;28;20998;-67
2023/01/11 06:46:00;;;;;;;4.00;0.80;;;;;;;6.81;91.62;100523.47;5055105;28;20529;-67
2023/01/11 06:48:28;;;;;;;5.63;1.07;;;;;;;6.78;91.92;100531.31;5055020;28;20442;-67
2023/01/11 06:50:56;;;;;;;5.60;0.97;;;;;;;6.86;91.38;100535.31;5054670;28;20454;-68
2023/01/11 06:53:25;;;;;;;6.30;1.20;;;;;;;6.89;91.24;100537.44;5054598;28;20466;-67
2023/01/11 06:55:54;;;;;;;5.60;1.07;;;;;;;6.88;91.07;100533.97;5054470;28;20861;-68
2023/01/11 06:58:23;;;;;;;4.30;1.00;;;;;;;6.98;90.55;100538.47;5054797;28;20431;-67
2023/01/11 07:00:50;;;;;;;8.13;1.30;;;;;;;6.98;89.79;100541.16;5054705;28;20500;-69
2023/01/11 07:03:19;;;;;;;4.10;0.87;;;;;;;7.00;89.95;100541.72;5054303;28;20478;-68
2023/01/11 07:05:46;;;;;;;7.20;1.00;;;;;;;6.98;90.83;100539.28;5054588;28;20486;-67
2023/01/11 07:08:13;;;;;;;7.90;0.97;;;;;;;7.00;90.30;100544.41;5054490;28;20533;-67
2023/01/11 07:10:42;;;;;;;4.70;0.97;;;;;;;7.06;89.27;100545.97;5054514;28;20521;-68
2023/01/11 07:13:09;;;;;;;4.50;1.00;;;;;;;7.04;90.58;100548.16;5054513;28;20470;-67
2023/01/11 07:15:36;;;;;;;6.30;0.97;;;;;;;7.02;90.32;100545.72;5054557;28;20489;-67
2023/01/11 07:18:03;;;;;;;5.47;0.97;;;;;;;7.08;89.44;100547.31;5054508;28;20437;-67
2023/01/11 07:20:29;;;;;;;7.13;0.87;;;;;;;7.11;89.69;100554.03;5054392;28;20445;-68
2023/01/11 07:22:58;;;;;;;3.93;0.70;;;;;;;7.16;89.57;100553.19;5054009;28;21002;-67
2023/01/11 07:25:26;;;;;;;4.10;0.83;;;;;;;7.24;89.09;100548.00;5054006;28;20442;-67
2023/01/11 07:27:57;;;;;;;3.93;0.73;;;;;;;7.28;88.98;100549.06;5054316;28;20453;-72
2023/01/11 07:30:24;;;;;;;7.20;1.10;;;;;;;7.24;89.32;100548.00;5053663;28;20419;-68
2023/01/11 07:32:51;;;;;;;5.80;0.93;;;;;;;7.25;88.75;100552.31;5054244;28;20462;-69
2023/01/11 07:35:17;;;;;;;4.90;1.00;;;;;;;7.33;88.47;100556.31;5054136;28;20926;-68
2023/01/11 07:37:45;;;;;;;4.30;0.60;;;;;;;7.35;89.22;100559.53;5054070;28;20533;-67
2023/01/11 07:40:15;;;;;;;5.00;0.93;;;;;;;7.38;88.87;100555.47;5054323;28;20444;-67
2023/01/11 07:45:31;;;;;;;4.50;0.93;;;;;;;7.41;88.52;100552.22;5053853;28;20537;-68
2023/01/11 07:47:58;;;;;;;4.70;0.77;;;;;;;7.41;88.91;100554.91;5053894;28;20799;-68
2023/01/11 07:50:24;;;;;;;8.27;1.20;;;;;;;7.43;89.29;100548.16;5053987;28;20442;-67
2023/01/11 07:52:51;;;;;;;4.40;0.80;;;;;;;7.49;88.33;100559.72;5053471;28;20497;-67
2023/01/11 07:55:18;;;;;;;3.97;0.60;;;;;;;7.50;88.56;100542.44;5053705;28;20478;-67
2023/01/11 07:57:44;;;;;;;5.23;1.10;;;;;;;7.54;88.85;100546.19;5053695;28;20481;-68
2023/01/11 08:00:13;;;;;;;4.97;0.80;;;;;;;7.60;88.54;100547.75;5053674;28;20443;-67
2023/01/11 08:02:41;;;;;;;9.13;0.90;;;;;;;7.51;88.81;100547.53;5053389;28;20469;-68
2023/01/11 08:05:09;;;;;;;3.93;0.60;;;;;;;7.57;89.57;100540.25;5053685;28;20462;-68
2023/01/11 08:07:36;;;;;;;4.00;0.80;;;;;;;7.59;89.47;100543.44;5053386;28;20938;-68
2023/01/11 08:10:03;;;;;;;5.17;0.90;;;;;;;7.60;89.08;100539.66;5053550;28;20540;-67
2023/01/11 08:15:14;;;;;;;5.87;1.13;;;;;;;7.68;87.96;100546.34;5053458;28;20476;-67
2023/01/11 08:17:42;;;;;;;5.20;1.20;;;;;;;7.68;88.65;100540.97;5053364;28;20438;-67
2023/01/11 08:20:11;;;;;;;7.50;1.10;;;;;;;7.62;89.60;100536.72;5053129;28;20486;-68
2023/01/11 08:22:38;;;;;;;4.70;1.10;;;;;;;7.54;92.31;100533.53;5053245;28;20443;-68
2023/01/11 08:25:05;;;;;;;4.23;0.90;;;;;;;7.55;93.13;100537.81;5053273;28;20438;-67
2023/01/11 08:27:31;;;;;;;4.10;0.80;;;;;;;7.50;93.31;100526.28;5053354;28;20450;-67
2023/01/11 08:29:58;;;;;;;4.10;1.00;;;;;;;7.48;94.60;100536.53;5053275;28;20484;-68
2023/01/11 08:32:27;;;;;;;4.20;0.70;;;;;;;7.40;95.38;100539.84;5053219;28;20442;-68
2023/01/11 08:34:55;;;;;;;10.20;1.50;;;;;;;7.30;96.74;100536.13;5052955;28;20557;-67
2023/01/11 08:37:22;;;;;;;4.40;0.80;;;;;;;7.24;98.86;100522.97;5053136;28;20460;-69
2023/01/11 08:39:50;;;;;;;6.53;1.30;;;;;;;7.22;99.20;100520.56;5056291;28;20458;-69
2023/01/11 08:42:16;;;;;;;4.47;0.90;;;;;;;7.16;99.47;100534.31;5053815;28;20962;-66
2023/01/11 08:44:43;;;;;;;6.87;1.07;;;;;;;7.15;99.77;100541.59;5052858;28;20482;-69
2023/01/11 08:47:09;;;;;;;4.67;1.03;;;;;;;7.09;100.00;100542.72;5053036;28;20497;-69
2023/01/11 08:49:36;;;;;;;6.53;0.90;;;;;;;7.03;100.00;100528.47;5052897;28;20469;-69
2023/01/11 08:52:04;;;;;;;4.63;0.90;;;;;;;7.02;100.00;100524.19;5052616;28;20522;-67
2023/01/11 08:54:31;;;;;;;4.67;1.07;;;;;;;7.01;100.00;100527.97;5052612;28;20446;-69
2023/01/11 08:56:57;;;;;;;4.90;1.30;;;;;;;6.96;100.00;100536.06;5052695;28;20935;-69
2023/01/11 08:59:24;;;;;;;6.07;0.83;;;;;;;6.90;100.00;100523.69;5052938;28;20468;-69
2023/01/11 09:01:51;;;;;;;4.30;0.93;;;;;;;6.86;100.00;100519.94;5052611;28;20438;-69
2023/01/11 09:04:17;;;;;;;7.23;1.17;;;;;;;6.81;100.00;100514.59;5052489;28;20480;-69
2023/01/11 09:06:44;;;;;;;4.53;1.10;;;;;;;6.82;100.00;100516.22;5052630;28;20442;-68
2023/01/11 09:09:12;;;;;;;7.83;1.13;;;;;;;6.86;100.00;100511.06;5052893;28;20870;-68
2023/01/11 09:14:29;;;;;;;4.50;1.20;;;;;;;6.82;100.00;100508.97;5036871;28;20447;-69
2023/01/11 09:16:56;;;;;;;17.73;2.17;;;;;;;6.86;100.00;100509.19;5052369;28;20454;-68
2023/01/11 09:19:23;;;;;;;5.63;1.13;;;;;;;6.85;100.00;100512.97;5052352;28;20450;-69
2023/01/11 09:21:50;;;;;;;8.00;2.30;;;;;;;6.90;100.00;100512.13;5052879;28;20446;-70
2023/01/11 09:24:18;;;;;;;10.00;3.40;;;;;;;6.93;100.00;100511.59;5052740;28;20524;-69
2023/01/11 09:26:45;;;;;;;5.20;1.60;;;;;;;6.95;100.00;100512.09;5052214;28;20939;-72
2023/01/11 09:29:12;;;;;;;5.17;1.27;;;;;;;6.94;100.00;100522.06;5052456;28;20485;-69
2023/01/11 09:31:39;;;;;;;5.30;1.33;;;;;;;6.94;100.00;100515.88;5052729;28;20536;-69
2023/01/11 09:34:07;;;;;;;8.70;1.27;;;;;;;6.87;100.00;100518.09;5052740;28;20553;-69
2023/01/11 09:36:35;;;;;;;4.50;1.33;;;;;;;6.95;100.00;100522.88;5052461;28;20482;-69
2023/01/11 09:39:06;;;;;;;8.43;1.30;;;;;;;6.91;100.00;100511.06;5052328;28;20485;-68
2023/01/11 09:41:59;;;;;;;5.63;1.30;;;;;;;6.92;100.00;100512.69;5052609;28;20426;-69
2023/01/11 09:44:28;;;;;;;5.83;1.60;;;;;;;6.96;100.00;100508.34;5052479;28;20474;-69
2023/01/11 09:47:02;;;;;;;5.30;1.20;;;;;;;7.00;100.00;100504.00;5052643;28;20537;-69
2023/01/11 09:49:34;;;;;;;6.70;1.43;;;;;;;7.02;100.00;100507.22;5052612;28;20512;-70
2023/01/11 09:52:12;;;;;;;4.73;1.00;;;;;;;7.04;100.00;100505.06;5052633;28;20439;-70
2023/01/11 09:54:38;;;;;;;5.60;1.40;;;;;;;7.04;100.00;100499.69;5054822;28;20468;-70
2023/01/11 09:57:15;;;;;;;5.70;1.63;;;;;;;7.06;100.00;100498.28;5055750;28;20510;-69
2023/01/11 09:59:53;;;;;;;5.00;1.30;;;;;;;7.06;100.00;100501.00;5055749;28;20426;-70
2023/01/11 10:02:34;;;;;;;5.33;1.40;;;;;;;7.08;100.00;100490.75;5056009;28;20434;-70
2023/01/11 10:05:28;;;;;;;5.40;1.10;;;;;;;7.13;100.00;100487.22;5064248;22;20603;-78
2023/01/11 10:08:11;;;;;;;5.20;1.20;;;;;;;7.11;100.00;100481.31;5056370;28;20877;-78
2023/01/11 10:10:47;;;;;;;5.13;1.07;;;;;;;7.14;100.00;100478.06;5057971;28;20437;-78
2023/01/11 10:13:30;;;;;;;6.30;1.17;;;;;;;7.20;100.00;100470.72;5059829;28;20430;-78
2023/01/11 10:16:06;;;;;;;4.90;1.17;;;;;;;7.17;100.00;100465.91;5057163;28;20470;-76
2023/01/11 10:18:53;;;;;;;5.30;1.30;;;;;;;7.23;100.00;100472.88;5055499;28;20985;-76
2023/01/11 10:21:27;;;;;;;5.37;1.03;;;;;;;7.28;100.00;100462.84;5055655;28;20438;-76
2023/01/11 10:24:02;;;;;;;5.40;1.07;;;;;;;7.33;100.00;100464.69;5055720;28;20465;-77
2023/01/11 10:26:35;;;;;;;4.70;1.10;;;;;;;7.37;100.00;100462.25;5055796;28;20418;-76
2023/01/11 10:32:30;;;;;;;5.00;1.30;;;;;;;7.44;100.00;100465.44;5047960;28;20492;-76
2023/01/11 10:35:23;;;;;;;11.13;2.10;;;;;;;7.50;100.00;100461.59;5055556;28;20525;-76
2023/01/11 10:38:09;;;;;;;12.80;2.80;;;;;;;7.47;100.00;100452.19;5055486;28;20521;-76
2023/01/11 10:43:31;;;;;;;6.43;2.60;;;;;;;7.55;100.00;100438.09;5055312;28;20984;-76
2023/01/11 10:46:04;;;;;;;10.70;2.13;;;;;;;7.61;100.00;100441.53;5055527;28;20454;-77
2023/01/11 10:48:35;;;;;;;8.10;2.10;;;;;;;7.62;100.00;100435.06;5055484;28;20553;-76
2023/01/11 10:51:10;;;;;;;12.73;2.20;;;;;;;7.63;100.00;100444.75;5055414;28;20473;-76
2023/01/11 10:53:42;;;;;;;8.80;2.13;;;;;;;7.65;100.00;100442.56;5055315;28;20426;-76
2023/01/11 10:56:21;;;;;;;7.63;1.80;;;;;;;7.65;100.00;100436.38;5055130;28;20454;-77
2023/01/11 10:59:06;;;;;;;7.50;1.87;;;;;;;7.64;100.00;100434.78;5054851;28;20536;-76
2023/01/11 11:01:50;;;;;;;6.27;1.80;;;;;;;7.67;100.00;100428.84;5055245;28;20564;-76
2023/01/11 11:04:39;;;;;;;8.20;1.50;;;;;;;7.69;100.00;100432.84;5055180;28;20451;-76
2023/01/11 11:07:14;;;;;;;21.63;2.83;;;;;;;7.70;100.00;100436.31;5054637;28;20458;-76
2023/01/11 11:09:51;;;;;;;5.90;1.20;;;;;;;7.69;100.00;100421.25;5055532;28;20479;-77
2023/01/11 11:12:22;;;;;;;10.57;2.30;;;;;;;7.71;100.00;100422.59;5055269;28;20473;-77
2023/01/11 11:14:56;;;;;;;8.40;2.07;;;;;;;7.76;100.00;100417.13;5054924;28;20521;-76
2023/01/11 11:17:27;;;;;;;5.23;1.47;;;;;;;7.77;100.00;100409.84;5054673;28;20494;-77
2023/01/11 11:19:57;;;;;;;5.20;1.30;;;;;;;7.83;100.00;100406.81;5054792;28;20427;-77
2023/01/11 11:22:24;;;;;;;6.53;1.70;;;;;;;7.83;100.00;100408.69;5054773;28;20525;-76
2023/01/11 11:24:58;;;;;;;6.00;1.13;;;;;;;7.89;100.00;100409.47;5054698;28;20478;-76
2023/01/11 11:27:30;;;;;;;19.90;1.93;;;;;;;7.94;100.00;100398.59;5054874;28;20472;-76
2023/01/11 11:29:57;;;;;;;5.50;1.50;;;;;;;8.00;100.00;100397.44;5054324;28;20526;-76
2023/01/11 11:32:29;;;;;;;5.67;1.77;;;;;;;8.03;100.00;100410.34;5054461;28;20450;-76
2023/01/11 11:34:56;;;;;;;5.30;1.90;;;;;;;8.03;100.00;100399.56;5054529;28;20484;-76
2023/01/11 11:37:26;;;;;;;7.50;1.60;;;;;;;7.97;100.00;100401.53;5054426;28;20490;-77
2023/01/11 11:39:54;;;;;;;7.13;1.43;;;;;;;7.92;100.00;100396.19;5054704;28;20466;-76
2023/01/11 11:42:22;;;;;;;7.20;1.63;;;;;;;7.92;100.00;100393.47;5054487;28;20446;-76
2023/01/11 11:45:16;;;;;;;6.60;1.87;;;;;;;7.99;100.00;100395.84;5053939;28;20454;-76
2023/01/11 11:48:00;;;;;;;4.67;1.10;;;;;;;8.07;100.00;100389.81;5054021;28;20557;-76
2023/01/11 11:50:28;;;;;;;5.37;1.60;;;;;;;8.12;100.00;100383.53;5053938;28;20963;-76
2023/01/11 11:53:02;;;;;;;6.70;2.00;;;;;;;8.14;100.00;100384.84;5053808;28;20946;-76
2023/01/11 11:55:31;;;;;;;6.37;1.77;;;;;;;8.10;100.00;100378.44;5053686;28;20431;-76
2023/01/11 11:58:01;;;;;;;5.33;1.17;;;;;;;8.13;100.00;100383.25;5053680;28;20474;-76
2023/01/11 12:00:30;;;;;;;5.50;1.47;;;;;;;8.22;100.00;100378.00;5053742;28;20457;-76
2023/01/11 12:03:02;;;;;;;6.67;2.00;;;;;;;8.20;100.00;100370.22;5053752;28;20430;-76
2023/01/11 12:05:29;;;;;;;5.60;1.63;;;;;;;8.17;100.00;100362.69;5053650;28;20446;-76
2023/01/11 12:07:56;;;;;;;8.80;2.20;;;;;;;8.22;100.00;100362.63;5053815;28;20470;-76
2023/01/11 12:10:25;;;;;;;4.50;1.20;;;;;;;8.27;100.00;100364.44;5054083;28;20449;-77
2023/01/11 12:12:54;;;;;;;5.90;1.60;;;;;;;8.32;100.00;100357.09;5053966;28;20466;-77
2023/01/11 12:15:24;;;;;;;6.90;2.40;;;;;;;8.21;100.00;100357.53;5053787;28;20445;-76